sensor_id;sensor_type;location;lat;lon;timestamp;temperature;humidity
25050;DHT22;13046;49.814;9.918;2022-08-19T00:01:13;21.90;99.90
25050;DHT22;13046;49.814;9.918;2022-08-19T00:03:39;21.80;99.90
25050;DHT22;13046;49.814;9.918;2022-08-19T00:06:04;21.80;99.90
25050;DHT22;13046;49.814;9.918;2022-08-19T00:08:30;21.80;99.90
25050;DHT22;13046;49.814;9.918;2022-08-19T00:10:56;21.80;99.90
25050;DHT22;13046;49.814;9.918;2022-08-19T00:13:22;21.80;99.90
25050;DHT22;13046;49.814;9.918;2022-08-19T00:15:48;21.80;99.90
25050;DHT22;13046;49.814;9.918;2022-08-19T00:18:14;21.70;99.90
25050;DHT22;13046;49.814;9.918;2022-08-19T00:20:39;21.70;99.90
25050;DHT22;13046;49.814;9.918;2022-08-19T00:23:06;21.70;99.90
25050;DHT22;13046;49.814;9.918;2022-08-19T00:25:32;21.50;99.90
25050;DHT22;13046;49.814;9.918;2022-08-19T00:27:59;21.50;99.90
25050;DHT22;13046;49.814;9.918;2022-08-19T00:30:25;21.40;99.90
25050;DHT22;13046;49.814;9.918;2022-08-19T00:32:53;21.30;99.90
25050;DHT22;13046;49.814;9.918;2022-08-19T00:35:20;21.30;99.90
25050;DHT22;13046;49.814;9.918;2022-08-19T00:37:48;21.40;99.90
25050;DHT22;13046;49.814;9.918;2022-08-19T00:40:16;21.30;99.90
25050;DHT22;13046;49.814;9.918;2022-08-19T00:42:44;21.30;99.90
25050;DHT22;13046;49.814;9.918;2022-08-19T00:45:17;21.30;99.90
25050;DHT22;13046;49.814;9.918;2022-08-19T00:47:44;21.30;99.90
25050;DHT22;13046;49.814;9.918;2022-08-19T00:50:15;21.30;99.90
25050;DHT22;13046;49.814;9.918;2022-08-19T00:52:45;21.30;99.90
25050;DHT22;13046;49.814;9.918;2022-08-19T00:55:19;21.30;99.90
25050;DHT22;13046;49.814;9.918;2022-08-19T00:57:53;21.20;99.90
25050;DHT22;13046;49.814;9.918;2022-08-19T01:00:22;21.20;99.90
25050;DHT22;13046;49.814;9.918;2022-08-19T01:02:48;21.20;99.90
25050;DHT22;13046;49.814;9.918;2022-08-19T01:05:21;21.00;99.90
25050;DHT22;13046;49.814;9.918;2022-08-19T01:07:48;21.00;99.90
25050;DHT22;13046;49.814;9.918;2022-08-19T01:10:19;21.00;99.90
25050;DHT22;13046;49.814;9.918;2022-08-19T01:12:46;20.90;99.90
25050;DHT22;13046;49.814;9.918;2022-08-19T01:15:16;21.00;99.90
25050;DHT22;13046;49.814;9.918;2022-08-19T01:17:43;20.90;99.90
25050;DHT22;13046;49.814;9.918;2022-08-19T01:20:15;20.80;99.90
25050;DHT22;13046;49.814;9.918;2022-08-19T01:22:46;20.70;99.90
25050;DHT22;13046;49.814;9.918;2022-08-19T01:25:19;20.70;99.90
25050;DHT22;13046;49.814;9.918;2022-08-19T01:27:47;20.70;99.90
25050;DHT22;13046;49.814;9.918;2022-08-19T01:30:16;20.70;99.90
25050;DHT22;13046;49.814;9.918;2022-08-19T01:32:43;20.60;99.90
25050;DHT22;13046;49.814;9.918;2022-08-19T01:35:10;20.60;99.90
25050;DHT22;13046;49.814;9.918;2022-08-19T01:37:54;20.50;99.90
25050;DHT22;13046;49.814;9.918;2022-08-19T01:40:23;20.40;99.90
25050;DHT22;13046;49.814;9.918;2022-08-19T01:42:50;20.50;99.90
25050;DHT22;13046;49.814;9.918;2022-08-19T01:45:17;20.50;99.90
25050;DHT22;13046;49.814;9.918;2022-08-19T01:47:43;20.50;99.90
25050;DHT22;13046;49.814;9.918;2022-08-19T01:50:11;20.40;99.90
25050;DHT22;13046;49.814;9.918;2022-08-19T01:52:42;20.30;99.90
25050;DHT22;13046;49.814;9.918;2022-08-19T01:55:12;20.30;99.90
25050;DHT22;13046;49.814;9.918;2022-08-19T01:57:39;20.30;99.90
25050;DHT22;13046;49.814;9.918;2022-08-19T02:00:09;20.30;99.90
25050;DHT22;13046;49.814;9.918;2022-08-19T02:02:38;20.30;99.90
25050;DHT22;13046;49.814;9.918;2022-08-19T02:05:05;20.30;99.90
25050;DHT22;13046;49.814;9.918;2022-08-19T02:07:37;20.20;99.90
25050;DHT22;13046;49.814;9.918;2022-08-19T02:10:07;20.10;99.90
25050;DHT22;13046;49.814;9.918;2022-08-19T02:12:33;20.10;99.90
25050;DHT22;13046;49.814;9.918;2022-08-19T02:14:59;20.00;99.90
25050;DHT22;13046;49.814;9.918;2022-08-19T02:17:27;19.90;99.90
25050;DHT22;13046;49.814;9.918;2022-08-19T02:19:55;19.90;99.90
25050;DHT22;13046;49.814;9.918;2022-08-19T02:22:21;19.90;99.90
25050;DHT22;13046;49.814;9.918;2022-08-19T02:24:46;19.90;99.90
25050;DHT22;13046;49.814;9.918;2022-08-19T02:27:13;20.00;99.90
25050;DHT22;13046;49.814;9.918;2022-08-19T02:29:39;19.90;99.90
25050;DHT22;13046;49.814;9.918;2022-08-19T02:32:05;19.90;99.90
25050;DHT22;13046;49.814;9.918;2022-08-19T02:34:30;19.90;99.90
25050;DHT22;13046;49.814;9.918;2022-08-19T02:36:56;19.80;99.90
25050;DHT22;13046;49.814;9.918;2022-08-19T02:39:22;19.70;99.90
25050;DHT22;13046;49.814;9.918;2022-08-19T02:41:47;19.80;99.90
25050;DHT22;13046;49.814;9.918;2022-08-19T02:44:14;19.80;99.90
25050;DHT22;13046;49.814;9.918;2022-08-19T02:46:40;19.80;99.90
25050;DHT22;13046;49.814;9.918;2022-08-19T02:49:07;19.60;99.90
25050;DHT22;13046;49.814;9.918;2022-08-19T02:51:38;19.60;99.90
25050;DHT22;13046;49.814;9.918;2022-08-19T02:54:05;19.50;99.90
25050;DHT22;13046;49.814;9.918;2022-08-19T02:56:35;19.40;99.90
25050;DHT22;13046;49.814;9.918;2022-08-19T02:59:01;19.50;99.90
25050;DHT22;13046;49.814;9.918;2022-08-19T03:01:30;19.40;99.90
25050;DHT22;13046;49.814;9.918;2022-08-19T03:03:58;19.30;99.90
25050;DHT22;13046;49.814;9.918;2022-08-19T03:06:24;19.30;99.90
25050;DHT22;13046;49.814;9.918;2022-08-19T03:08:51;19.30;99.90
25050;DHT22;13046;49.814;9.918;2022-08-19T03:11:19;19.30;99.90
25050;DHT22;13046;49.814;9.918;2022-08-19T03:13:45;19.30;99.90
25050;DHT22;13046;49.814;9.918;2022-08-19T03:16:12;19.40;99.90
25050;DHT22;13046;49.814;9.918;2022-08-19T03:18:38;19.40;99.90
25050;DHT22;13046;49.814;9.918;2022-08-19T03:21:04;19.40;99.90
25050;DHT22;13046;49.814;9.918;2022-08-19T03:23:30;19.30;99.90
25050;DHT22;13046;49.814;9.918;2022-08-19T03:25:56;19.40;99.90
25050;DHT22;13046;49.814;9.918;2022-08-19T03:28:21;19.30;99.90
25050;DHT22;13046;49.814;9.918;2022-08-19T03:31:05;19.30;99.90
25050;DHT22;13046;49.814;9.918;2022-08-19T03:33:35;19.30;99.90
25050;DHT22;13046;49.814;9.918;2022-08-19T03:38:30;19.20;99.90
25050;DHT22;13046;49.814;9.918;2022-08-19T03:40:55;19.20;99.90
25050;DHT22;13046;49.814;9.918;2022-08-19T03:43:21;19.10;99.90
25050;DHT22;13046;49.814;9.918;2022-08-19T03:45:46;19.10;99.90
25050;DHT22;13046;49.814;9.918;2022-08-19T03:48:14;19.00;99.90
25050;DHT22;13046;49.814;9.918;2022-08-19T03:50:42;18.90;99.90
25050;DHT22;13046;49.814;9.918;2022-08-19T03:53:07;18.90;99.90
25050;DHT22;13046;49.814;9.918;2022-08-19T03:55:39;18.90;99.90
25050;DHT22;13046;49.814;9.918;2022-08-19T03:58:04;18.90;99.90
25050;DHT22;13046;49.814;9.918;2022-08-19T04:00:30;18.80;99.90
25050;DHT22;13046;49.814;9.918;2022-08-19T04:02:56;18.70;99.90
25050;DHT22;13046;49.814;9.918;2022-08-19T04:05:21;18.70;99.90
25050;DHT22;13046;49.814;9.918;2022-08-19T04:07:47;18.60;99.90
25050;DHT22;13046;49.814;9.918;2022-08-19T04:10:12;18.60;99.90
25050;DHT22;13046;49.814;9.918;2022-08-19T04:12:38;18.60;99.90
25050;DHT22;13046;49.814;9.918;2022-08-19T04:15:05;18.50;99.90
25050;DHT22;13046;49.814;9.918;2022-08-19T04:17:31;18.50;99.90
25050;DHT22;13046;49.814;9.918;2022-08-19T04:19:57;18.60;99.90
25050;DHT22;13046;49.814;9.918;2022-08-19T04:22:23;18.60;99.90
25050;DHT22;13046;49.814;9.918;2022-08-19T04:24:48;18.60;99.90
25050;DHT22;13046;49.814;9.918;2022-08-19T04:27:14;18.60;99.90
25050;DHT22;13046;49.814;9.918;2022-08-19T04:29:41;18.70;99.90
25050;DHT22;13046;49.814;9.918;2022-08-19T04:32:07;18.60;99.90
25050;DHT22;13046;49.814;9.918;2022-08-19T04:34:33;18.50;99.90
25050;DHT22;13046;49.814;9.918;2022-08-19T04:36:59;18.50;99.90
25050;DHT22;13046;49.814;9.918;2022-08-19T04:39:29;18.50;99.90
25050;DHT22;13046;49.814;9.918;2022-08-19T04:42:15;18.50;99.90
25050;DHT22;13046;49.814;9.918;2022-08-19T04:44:59;18.60;99.90
25050;DHT22;13046;49.814;9.918;2022-08-19T04:47:25;18.60;99.90
25050;DHT22;13046;49.814;9.918;2022-08-19T04:49:51;18.60;99.90
25050;DHT22;13046;49.814;9.918;2022-08-19T04:52:17;18.60;99.90
25050;DHT22;13046;49.814;9.918;2022-08-19T04:54:42;18.70;99.90
25050;DHT22;13046;49.814;9.918;2022-08-19T04:57:08;18.80;99.90
25050;DHT22;13046;49.814;9.918;2022-08-19T04:59:35;18.80;99.90
25050;DHT22;13046;49.814;9.918;2022-08-19T05:02:02;18.80;99.90
25050;DHT22;13046;49.814;9.918;2022-08-19T05:04:28;18.80;99.90
25050;DHT22;13046;49.814;9.918;2022-08-19T05:06:57;18.80;99.90
25050;DHT22;13046;49.814;9.918;2022-08-19T05:09:22;18.80;99.90
25050;DHT22;13046;49.814;9.918;2022-08-19T05:11:48;18.90;99.90
25050;DHT22;13046;49.814;9.918;2022-08-19T05:14:16;18.90;99.90
25050;DHT22;13046;49.814;9.918;2022-08-19T05:16:42;18.90;99.90
25050;DHT22;13046;49.814;9.918;2022-08-19T05:19:08;19.00;99.90
25050;DHT22;13046;49.814;9.918;2022-08-19T05:21:52;19.00;99.90
25050;DHT22;13046;49.814;9.918;2022-08-19T05:24:37;19.20;99.90
25050;DHT22;13046;49.814;9.918;2022-08-19T05:27:03;19.20;99.90
25050;DHT22;13046;49.814;9.918;2022-08-19T05:29:31;19.20;99.90
25050;DHT22;13046;49.814;9.918;2022-08-19T05:31:58;19.30;99.90
25050;DHT22;13046;49.814;9.918;2022-08-19T05:34:25;19.40;99.90
25050;DHT22;13046;49.814;9.918;2022-08-19T05:36:57;19.40;99.90
25050;DHT22;13046;49.814;9.918;2022-08-19T05:39:27;19.50;99.90
25050;DHT22;13046;49.814;9.918;2022-08-19T05:41:57;19.60;99.90
25050;DHT22;13046;49.814;9.918;2022-08-19T05:44:25;19.70;99.90
25050;DHT22;13046;49.814;9.918;2022-08-19T05:46:52;19.70;99.90
25050;DHT22;13046;49.814;9.918;2022-08-19T05:49:20;19.90;99.90
25050;DHT22;13046;49.814;9.918;2022-08-19T05:51:47;19.90;99.90
25050;DHT22;13046;49.814;9.918;2022-08-19T05:54:12;20.10;99.90
25050;DHT22;13046;49.814;9.918;2022-08-19T05:56:40;20.20;99.90
25050;DHT22;13046;49.814;9.918;2022-08-19T05:59:08;20.30;99.90
25050;DHT22;13046;49.814;9.918;2022-08-19T06:01:38;20.40;99.90
25050;DHT22;13046;49.814;9.918;2022-08-19T06:04:05;20.40;99.90
25050;DHT22;13046;49.814;9.918;2022-08-19T06:06:32;20.50;99.90
25050;DHT22;13046;49.814;9.918;2022-08-19T06:09:03;20.60;99.90
25050;DHT22;13046;49.814;9.918;2022-08-19T06:11:42;20.70;99.90
25050;DHT22;13046;49.814;9.918;2022-08-19T06:14:18;20.70;99.90
25050;DHT22;13046;49.814;9.918;2022-08-19T06:16:45;20.80;99.90
25050;DHT22;13046;49.814;9.918;2022-08-19T06:19:13;20.80;99.90
25050;DHT22;13046;49.814;9.918;2022-08-19T06:21:41;20.90;99.90
25050;DHT22;13046;49.814;9.918;2022-08-19T06:24:08;20.90;99.90
25050;DHT22;13046;49.814;9.918;2022-08-19T06:26:36;20.90;99.90
25050;DHT22;13046;49.814;9.918;2022-08-19T06:29:06;20.90;99.90
25050;DHT22;13046;49.814;9.918;2022-08-19T06:31:34;21.00;99.90
25050;DHT22;13046;49.814;9.918;2022-08-19T06:34:01;21.10;99.90
25050;DHT22;13046;49.814;9.918;2022-08-19T06:36:34;21.20;99.90
25050;DHT22;13046;49.814;9.918;2022-08-19T06:39:04;21.30;99.90
25050;DHT22;13046;49.814;9.918;2022-08-19T06:41:33;21.40;99.90
25050;DHT22;13046;49.814;9.918;2022-08-19T06:43:59;21.40;99.90
25050;DHT22;13046;49.814;9.918;2022-08-19T06:46:25;21.30;99.90
25050;DHT22;13046;49.814;9.918;2022-08-19T06:48:52;21.20;99.90
25050;DHT22;13046;49.814;9.918;2022-08-19T06:51:19;21.30;99.90
25050;DHT22;13046;49.814;9.918;2022-08-19T06:53:46;21.30;99.90
25050;DHT22;13046;49.814;9.918;2022-08-19T06:56:18;21.30;99.90
25050;DHT22;13046;49.814;9.918;2022-08-19T06:58:44;21.40;99.90
25050;DHT22;13046;49.814;9.918;2022-08-19T07:01:10;21.50;99.90
25050;DHT22;13046;49.814;9.918;2022-08-19T07:03:37;21.50;99.90
25050;DHT22;13046;49.814;9.918;2022-08-19T07:06:06;21.60;99.90
25050;DHT22;13046;49.814;9.918;2022-08-19T07:08:34;21.70;99.90
25050;DHT22;13046;49.814;9.918;2022-08-19T07:11:05;21.70;99.90
25050;DHT22;13046;49.814;9.918;2022-08-19T07:13:32;21.80;99.90
25050;DHT22;13046;49.814;9.918;2022-08-19T07:16:16;21.80;99.90
25050;DHT22;13046;49.814;9.918;2022-08-19T07:18:42;21.90;99.90
25050;DHT22;13046;49.814;9.918;2022-08-19T07:21:14;21.80;99.90
25050;DHT22;13046;49.814;9.918;2022-08-19T07:23:41;21.90;99.90
25050;DHT22;13046;49.814;9.918;2022-08-19T07:26:18;22.00;99.90
25050;DHT22;13046;49.814;9.918;2022-08-19T07:31:19;22.10;99.90
25050;DHT22;13046;49.814;9.918;2022-08-19T07:38:45;22.00;99.90
25050;DHT22;13046;49.814;9.918;2022-08-19T07:46:06;21.90;99.90
25050;DHT22;13046;49.814;9.918;2022-08-19T07:55:56;21.90;99.90
25050;DHT22;13046;49.814;9.918;2022-08-19T08:00:56;21.90;99.90
25050;DHT22;13046;49.814;9.918;2022-08-19T08:14:06;22.30;99.90
25050;DHT22;13046;49.814;9.918;2022-08-19T08:19:04;23.00;99.90
25050;DHT22;13046;49.814;9.918;2022-08-19T08:28:51;22.80;99.90
25050;DHT22;13046;49.814;9.918;2022-08-19T08:31:17;23.30;99.90
25050;DHT22;13046;49.814;9.918;2022-08-19T08:33:45;23.50;99.90
25050;DHT22;13046;49.814;9.918;2022-08-19T09:09:26;23.50;99.90
25050;DHT22;13046;49.814;9.918;2022-08-19T09:12:08;24.10;99.90
25050;DHT22;13046;49.814;9.918;2022-08-19T10:50:45;24.10;99.90
25050;DHT22;13046;49.814;9.918;2022-08-19T10:53:29;25.50;99.90
25050;DHT22;13046;49.814;9.918;2022-08-19T10:55:55;25.50;99.90
25050;DHT22;13046;49.814;9.918;2022-08-19T10:58:39;25.30;99.90
25050;DHT22;13046;49.814;9.918;2022-08-19T11:01:06;25.40;99.90
25050;DHT22;13046;49.814;9.918;2022-08-19T11:06:06;25.20;99.90
25050;DHT22;13046;49.814;9.918;2022-08-19T11:08:33;25.10;99.90
25050;DHT22;13046;49.814;9.918;2022-08-19T11:11:01;24.90;99.90
25050;DHT22;13046;49.814;9.918;2022-08-19T11:13:30;25.00;99.90
25050;DHT22;13046;49.814;9.918;2022-08-19T11:16:23;25.10;99.90
25050;DHT22;13046;49.814;9.918;2022-08-19T11:18:56;25.60;99.90
25050;DHT22;13046;49.814;9.918;2022-08-19T11:21:38;25.60;99.90
25050;DHT22;13046;49.814;9.918;2022-08-19T11:24:08;25.40;99.90
25050;DHT22;13046;49.814;9.918;2022-08-19T11:26:35;25.00;99.90
25050;DHT22;13046;49.814;9.918;2022-08-19T11:29:01;24.90;99.90
25050;DHT22;13046;49.814;9.918;2022-08-19T11:31:30;25.00;99.90
25050;DHT22;13046;49.814;9.918;2022-08-19T11:33:58;25.10;99.90
25050;DHT22;13046;49.814;9.918;2022-08-19T11:36:25;25.30;99.90
25050;DHT22;13046;49.814;9.918;2022-08-19T11:38:51;25.30;99.90
25050;DHT22;13046;49.814;9.918;2022-08-19T11:41:19;25.20;99.90
25050;DHT22;13046;49.814;9.918;2022-08-19T11:43:44;25.20;99.90
25050;DHT22;13046;49.814;9.918;2022-08-19T11:46:12;25.40;99.90
25050;DHT22;13046;49.814;9.918;2022-08-19T11:48:39;25.40;99.90
25050;DHT22;13046;49.814;9.918;2022-08-19T11:51:09;25.50;99.90
25050;DHT22;13046;49.814;9.918;2022-08-19T11:53:36;25.50;99.90
25050;DHT22;13046;49.814;9.918;2022-08-19T11:56:04;25.60;99.90
25050;DHT22;13046;49.814;9.918;2022-08-19T11:58:31;25.80;99.90
25050;DHT22;13046;49.814;9.918;2022-08-19T12:00:57;25.90;99.90
25050;DHT22;13046;49.814;9.918;2022-08-19T12:05:49;26.00;99.90
25050;DHT22;13046;49.814;9.918;2022-08-19T12:08:15;26.80;99.90
25050;DHT22;13046;49.814;9.918;2022-08-19T12:10:42;26.70;99.90
25050;DHT22;13046;49.814;9.918;2022-08-19T12:13:08;26.80;99.90
25050;DHT22;13046;49.814;9.918;2022-08-19T12:15:39;26.80;99.90
25050;DHT22;13046;49.814;9.918;2022-08-19T12:18:10;26.60;99.90
25050;DHT22;13046;49.814;9.918;2022-08-19T12:20:38;26.50;99.90
25050;DHT22;13046;49.814;9.918;2022-08-19T12:23:05;26.40;99.90
25050;DHT22;13046;49.814;9.918;2022-08-19T12:25:32;26.30;99.90
25050;DHT22;13046;49.814;9.918;2022-08-19T12:27:58;26.10;99.90
25050;DHT22;13046;49.814;9.918;2022-08-19T12:30:25;26.00;99.90
25050;DHT22;13046;49.814;9.918;2022-08-19T12:32:50;25.90;99.90
25050;DHT22;13046;49.814;9.918;2022-08-19T12:35:16;26.10;99.90
25050;DHT22;13046;49.814;9.918;2022-08-19T12:37:42;25.80;99.90
25050;DHT22;13046;49.814;9.918;2022-08-19T12:40:11;25.90;99.90
25050;DHT22;13046;49.814;9.918;2022-08-19T12:42:40;26.20;99.90
25050;DHT22;13046;49.814;9.918;2022-08-19T12:45:12;26.30;99.90
25050;DHT22;13046;49.814;9.918;2022-08-19T12:47:38;26.40;99.90
25050;DHT22;13046;49.814;9.918;2022-08-19T12:50:05;26.20;99.90
25050;DHT22;13046;49.814;9.918;2022-08-19T12:52:37;26.20;99.90
25050;DHT22;13046;49.814;9.918;2022-08-19T12:55:05;26.10;99.90
25050;DHT22;13046;49.814;9.918;2022-08-19T12:57:31;25.90;99.90
25050;DHT22;13046;49.814;9.918;2022-08-19T13:00:11;25.90;99.90
25050;DHT22;13046;49.814;9.918;2022-08-19T13:02:39;25.90;99.90
25050;DHT22;13046;49.814;9.918;2022-08-19T13:05:13;26.00;99.90
25050;DHT22;13046;49.814;9.918;2022-08-19T13:07:41;25.90;99.90
25050;DHT22;13046;49.814;9.918;2022-08-19T13:10:09;26.00;99.90
25050;DHT22;13046;49.814;9.918;2022-08-19T13:12:35;25.90;99.90
25050;DHT22;13046;49.814;9.918;2022-08-19T13:15:01;25.80;99.90
25050;DHT22;13046;49.814;9.918;2022-08-19T13:17:27;25.90;99.90
25050;DHT22;13046;49.814;9.918;2022-08-19T13:19:53;25.90;99.90
25050;DHT22;13046;49.814;9.918;2022-08-19T13:22:18;25.90;99.90
25050;DHT22;13046;49.814;9.918;2022-08-19T13:24:44;25.90;99.90
25050;DHT22;13046;49.814;9.918;2022-08-19T13:27:10;26.00;99.90
25050;DHT22;13046;49.814;9.918;2022-08-19T13:29:36;26.00;99.90
25050;DHT22;13046;49.814;9.918;2022-08-19T13:32:20;26.10;99.90
25050;DHT22;13046;49.814;9.918;2022-08-19T13:35:05;26.30;99.90
25050;DHT22;13046;49.814;9.918;2022-08-19T13:37:30;26.60;99.90
25050;DHT22;13046;49.814;9.918;2022-08-19T13:40:19;26.80;99.90
25050;DHT22;13046;49.814;9.918;2022-08-19T13:42:50;26.90;99.90
25050;DHT22;13046;49.814;9.918;2022-08-19T13:45:19;26.90;99.90
25050;DHT22;13046;49.814;9.918;2022-08-19T13:47:50;27.10;99.90
25050;DHT22;13046;49.814;9.918;2022-08-19T13:50:18;26.70;99.90
25050;DHT22;13046;49.814;9.918;2022-08-19T13:52:45;26.80;99.90
25050;DHT22;13046;49.814;9.918;2022-08-19T13:55:13;26.60;99.90
25050;DHT22;13046;49.814;9.918;2022-08-19T13:57:39;26.60;99.90
25050;DHT22;13046;49.814;9.918;2022-08-19T14:00:11;26.60;99.90
25050;DHT22;13046;49.814;9.918;2022-08-19T14:02:38;26.80;99.90
25050;DHT22;13046;49.814;9.918;2022-08-19T14:05:09;26.80;99.90
25050;DHT22;13046;49.814;9.918;2022-08-19T14:07:35;26.70;99.90
25050;DHT22;13046;49.814;9.918;2022-08-19T14:10:02;26.60;99.90
25050;DHT22;13046;49.814;9.918;2022-08-19T14:12:28;26.60;99.90
25050;DHT22;13046;49.814;9.918;2022-08-19T14:14:54;26.40;99.90
25050;DHT22;13046;49.814;9.918;2022-08-19T14:17:20;26.50;99.90
25050;DHT22;13046;49.814;9.918;2022-08-19T14:19:46;26.40;99.90
25050;DHT22;13046;49.814;9.918;2022-08-19T14:22:11;26.50;99.90
25050;DHT22;13046;49.814;9.918;2022-08-19T14:24:38;26.50;99.90
25050;DHT22;13046;49.814;9.918;2022-08-19T14:27:06;26.50;99.90
25050;DHT22;13046;49.814;9.918;2022-08-19T14:29:33;26.50;99.90
25050;DHT22;13046;49.814;9.918;2022-08-19T14:31:59;26.50;99.90
25050;DHT22;13046;49.814;9.918;2022-08-19T14:34:25;26.50;99.90
25050;DHT22;13046;49.814;9.918;2022-08-19T14:36:52;26.50;99.90
25050;DHT22;13046;49.814;9.918;2022-08-19T14:39:18;26.50;99.90
25050;DHT22;13046;49.814;9.918;2022-08-19T14:41:44;26.50;99.90
25050;DHT22;13046;49.814;9.918;2022-08-19T14:44:11;26.60;99.90
25050;DHT22;13046;49.814;9.918;2022-08-19T14:46:38;26.50;99.90
25050;DHT22;13046;49.814;9.918;2022-08-19T14:49:04;26.40;99.90
25050;DHT22;13046;49.814;9.918;2022-08-19T14:51:31;26.40;99.90
25050;DHT22;13046;49.814;9.918;2022-08-19T14:53:57;26.50;99.90
25050;DHT22;13046;49.814;9.918;2022-08-19T14:56:26;26.40;99.90
25050;DHT22;13046;49.814;9.918;2022-08-19T14:58:52;26.30;99.90
25050;DHT22;13046;49.814;9.918;2022-08-19T15:01:20;26.30;99.90
25050;DHT22;13046;49.814;9.918;2022-08-19T15:03:47;26.30;99.90
25050;DHT22;13046;49.814;9.918;2022-08-19T15:06:13;26.30;99.90
25050;DHT22;13046;49.814;9.918;2022-08-19T15:08:40;26.30;99.90
25050;DHT22;13046;49.814;9.918;2022-08-19T15:11:12;26.30;99.90
25050;DHT22;13046;49.814;9.918;2022-08-19T15:13:40;26.40;99.90
25050;DHT22;13046;49.814;9.918;2022-08-19T15:16:07;26.20;99.90
25050;DHT22;13046;49.814;9.918;2022-08-19T15:18:32;26.30;99.90
25050;DHT22;13046;49.814;9.918;2022-08-19T15:20:58;26.30;99.90
25050;DHT22;13046;49.814;9.918;2022-08-19T15:23:24;26.20;99.90
25050;DHT22;13046;49.814;9.918;2022-08-19T15:25:50;26.20;99.90
25050;DHT22;13046;49.814;9.918;2022-08-19T15:28:24;26.20;99.90
25050;DHT22;13046;49.814;9.918;2022-08-19T15:30:50;26.20;99.90
25050;DHT22;13046;49.814;9.918;2022-08-19T15:33:16;26.10;99.90
25050;DHT22;13046;49.814;9.918;2022-08-19T15:35:45;26.00;99.90
25050;DHT22;13046;49.814;9.918;2022-08-19T15:38:11;26.00;99.90
25050;DHT22;13046;49.814;9.918;2022-08-19T15:40:41;26.00;99.90
25050;DHT22;13046;49.814;9.918;2022-08-19T15:43:07;26.00;99.90
25050;DHT22;13046;49.814;9.918;2022-08-19T15:45:33;25.90;99.90
25050;DHT22;13046;49.814;9.918;2022-08-19T15:48:00;26.00;99.90
25050;DHT22;13046;49.814;9.918;2022-08-19T15:50:26;26.00;99.90
25050;DHT22;13046;49.814;9.918;2022-08-19T15:52:58;25.90;99.90
25050;DHT22;13046;49.814;9.918;2022-08-19T15:55:33;26.00;99.90
25050;DHT22;13046;49.814;9.918;2022-08-19T15:58:02;26.00;99.90
25050;DHT22;13046;49.814;9.918;2022-08-19T16:00:46;26.00;99.90
25050;DHT22;13046;49.814;9.918;2022-08-19T16:03:31;26.10;99.90
25050;DHT22;13046;49.814;9.918;2022-08-19T16:06:15;26.10;99.90
25050;DHT22;13046;49.814;9.918;2022-08-19T16:08:59;26.00;99.90
25050;DHT22;13046;49.814;9.918;2022-08-19T16:11:29;26.00;99.90
25050;DHT22;13046;49.814;9.918;2022-08-19T16:13:56;26.10;99.90
25050;DHT22;13046;49.814;9.918;2022-08-19T16:16:33;26.10;99.90
25050;DHT22;13046;49.814;9.918;2022-08-19T16:19:01;26.10;99.90
25050;DHT22;13046;49.814;9.918;2022-08-19T16:21:28;26.10;99.90
25050;DHT22;13046;49.814;9.918;2022-08-19T16:23:59;26.10;99.90
25050;DHT22;13046;49.814;9.918;2022-08-19T16:26:25;26.10;99.90
25050;DHT22;13046;49.814;9.918;2022-08-19T16:28:54;26.10;99.90
25050;DHT22;13046;49.814;9.918;2022-08-19T16:31:21;26.10;99.90
25050;DHT22;13046;49.814;9.918;2022-08-19T16:33:48;26.10;99.90
25050;DHT22;13046;49.814;9.918;2022-08-19T16:36:14;26.10;99.90
25050;DHT22;13046;49.814;9.918;2022-08-19T16:38:39;26.00;99.90
25050;DHT22;13046;49.814;9.918;2022-08-19T16:41:05;26.00;99.90
25050;DHT22;13046;49.814;9.918;2022-08-19T16:43:31;26.00;99.90
25050;DHT22;13046;49.814;9.918;2022-08-19T16:45:57;26.00;99.90
25050;DHT22;13046;49.814;9.918;2022-08-19T16:48:26;26.00;99.90
25050;DHT22;13046;49.814;9.918;2022-08-19T16:50:58;26.00;99.90
25050;DHT22;13046;49.814;9.918;2022-08-19T16:53:26;26.00;99.90
25050;DHT22;13046;49.814;9.918;2022-08-19T16:55:54;25.90;99.90
25050;DHT22;13046;49.814;9.918;2022-08-19T16:58:21;25.80;99.90
25050;DHT22;13046;49.814;9.918;2022-08-19T17:00:47;25.80;99.90
25050;DHT22;13046;49.814;9.918;2022-08-19T17:03:15;25.80;99.90
25050;DHT22;13046;49.814;9.918;2022-08-19T17:05:47;25.80;99.90
25050;DHT22;13046;49.814;9.918;2022-08-19T17:08:17;25.70;99.90
25050;DHT22;13046;49.814;9.918;2022-08-19T17:10:43;25.70;99.90
25050;DHT22;13046;49.814;9.918;2022-08-19T17:13:10;25.60;99.90
25050;DHT22;13046;49.814;9.918;2022-08-19T17:15:38;25.40;99.90
25050;DHT22;13046;49.814;9.918;2022-08-19T17:18:06;25.30;99.90
25050;DHT22;13046;49.814;9.918;2022-08-19T17:20:32;25.20;99.90
25050;DHT22;13046;49.814;9.918;2022-08-19T17:22:59;25.10;99.90
25050;DHT22;13046;49.814;9.918;2022-08-19T17:25:26;25.00;99.90
25050;DHT22;13046;49.814;9.918;2022-08-19T17:27:53;25.00;99.90
25050;DHT22;13046;49.814;9.918;2022-08-19T17:30:20;24.90;99.90
25050;DHT22;13046;49.814;9.918;2022-08-19T17:32:46;24.90;99.90
25050;DHT22;13046;49.814;9.918;2022-08-19T17:35:13;24.90;99.90
25050;DHT22;13046;49.814;9.918;2022-08-19T17:37:44;24.90;99.90
25050;DHT22;13046;49.814;9.918;2022-08-19T17:40:10;24.80;99.90
25050;DHT22;13046;49.814;9.918;2022-08-19T17:42:36;24.80;99.90
25050;DHT22;13046;49.814;9.918;2022-08-19T17:45:03;24.70;99.90
25050;DHT22;13046;49.814;9.918;2022-08-19T17:47:29;24.60;99.90
25050;DHT22;13046;49.814;9.918;2022-08-19T17:49:56;24.70;99.90
25050;DHT22;13046;49.814;9.918;2022-08-19T17:52:22;24.70;99.90
25050;DHT22;13046;49.814;9.918;2022-08-19T17:54:48;24.60;99.90
25050;DHT22;13046;49.814;9.918;2022-08-19T17:57:13;24.60;99.90
25050;DHT22;13046;49.814;9.918;2022-08-19T17:59:39;24.60;99.90
25050;DHT22;13046;49.814;9.918;2022-08-19T18:02:07;24.50;99.90
25050;DHT22;13046;49.814;9.918;2022-08-19T18:04:34;24.50;99.90
25050;DHT22;13046;49.814;9.918;2022-08-19T18:07:00;24.50;99.90
25050;DHT22;13046;49.814;9.918;2022-08-19T18:09:33;24.40;99.90
25050;DHT22;13046;49.814;9.918;2022-08-19T18:11:59;24.30;99.90
25050;DHT22;13046;49.814;9.918;2022-08-19T18:14:30;24.30;99.90
25050;DHT22;13046;49.814;9.918;2022-08-19T18:16:58;24.20;99.90
25050;DHT22;13046;49.814;9.918;2022-08-19T18:19:26;24.20;99.90
25050;DHT22;13046;49.814;9.918;2022-08-19T18:21:52;24.10;99.90
25050;DHT22;13046;49.814;9.918;2022-08-19T18:24:18;24.10;99.90
25050;DHT22;13046;49.814;9.918;2022-08-19T18:26:44;24.00;99.90
25050;DHT22;13046;49.814;9.918;2022-08-19T18:29:10;24.00;99.90
25050;DHT22;13046;49.814;9.918;2022-08-19T18:31:36;24.00;99.90
25050;DHT22;13046;49.814;9.918;2022-08-19T18:34:04;23.90;99.90
25050;DHT22;13046;49.814;9.918;2022-08-19T18:36:30;23.90;99.90